createdAt,value
2022-10-09T00:01:17.928Z,23.53
2022-10-09T00:03:17.865Z,23.51
2022-10-09T00:05:18.036Z,23.49
2022-10-09T00:07:17.897Z,23.52
2022-10-09T00:09:17.966Z,23.49
2022-10-09T00:11:17.816Z,23.46
2022-10-09T00:13:17.853Z,23.49
2022-10-09T00:15:17.993Z,23.48
2022-10-09T00:17:17.936Z,23.51
2022-10-09T00:19:17.913Z,23.52
2022-10-09T00:21:17.978Z,23.52
2022-10-09T00:23:17.972Z,23.53
2022-10-09T00:25:17.805Z,23.53
2022-10-09T00:27:17.986Z,23.52
2022-10-09T00:29:17.991Z,23.53
2022-10-09T00:31:18.051Z,23.47
2022-10-09T00:33:18.006Z,23.49
2022-10-09T00:35:17.907Z,23.50
2022-10-09T00:37:18.004Z,23.48
2022-10-09T00:39:18.052Z,23.41
2022-10-09T00:41:18.020Z,23.51
2022-10-09T00:43:17.994Z,23.49
2022-10-09T00:45:17.896Z,23.42
2022-10-09T00:47:18.006Z,23.40
2022-10-09T00:49:17.999Z,23.47
2022-10-09T00:51:18.024Z,23.41
2022-10-09T00:53:18.021Z,23.38
2022-10-09T00:55:17.926Z,23.37
2022-10-09T00:57:17.960Z,22.96
2022-10-09T00:59:17.903Z,23.31
2022-10-09T01:01:18.050Z,23.25
2022-10-09T01:03:17.993Z,23.36
2022-10-09T01:05:17.939Z,23.40
2022-10-09T01:07:18.080Z,23.49
2022-10-09T01:09:17.848Z,23.49
2022-10-09T01:11:18.071Z,23.53
2022-10-09T01:13:18.039Z,23.47
2022-10-09T01:15:18.070Z,23.50
2022-10-09T01:17:17.963Z,23.52
2022-10-09T01:19:17.836Z,23.50
2022-10-09T01:21:17.951Z,23.43
2022-10-09T01:23:18.035Z,23.47
2022-10-09T01:25:17.953Z,23.52
2022-10-09T01:27:18.026Z,23.53
2022-10-09T01:29:17.996Z,23.52
2022-10-09T01:31:18.257Z,23.50
2022-10-09T01:33:18.063Z,23.45
2022-10-09T01:35:17.950Z,23.47
2022-10-09T01:37:18.098Z,23.49
2022-10-09T01:39:18.067Z,23.44
2022-10-09T01:41:17.972Z,23.50
2022-10-09T01:43:18.001Z,23.48
2022-10-09T01:45:18.078Z,23.39
2022-10-09T01:47:17.954Z,23.47
2022-10-09T01:49:17.982Z,23.42
2022-10-09T01:51:18.054Z,23.48
2022-10-09T01:53:18.151Z,23.49
2022-10-09T01:55:17.964Z,23.51
2022-10-09T01:57:18.104Z,23.50
2022-10-09T01:59:18.010Z,23.43
2022-10-09T02:01:18.164Z,23.45
2022-10-09T02:03:18.093Z,23.43
2022-10-09T02:05:18.120Z,23.45
2022-10-09T02:07:17.992Z,23.41
2022-10-09T02:09:18.071Z,23.42
2022-10-09T02:11:18.109Z,23.37
2022-10-09T02:13:18.132Z,23.41
2022-10-09T02:15:18.099Z,23.42
2022-10-09T02:17:18.091Z,23.42
2022-10-09T02:19:18.094Z,23.40
2022-10-09T02:21:18.101Z,23.47
2022-10-09T02:23:18.126Z,23.41
2022-10-09T02:25:18.114Z,23.39
2022-10-09T02:27:18.128Z,23.39
2022-10-09T02:29:18.090Z,23.41
2022-10-09T02:31:18.155Z,23.41
2022-10-09T02:33:18.108Z,23.43
2022-10-09T02:35:18.036Z,23.41
2022-10-09T02:37:18.048Z,23.30
2022-10-09T02:39:18.129Z,23.39
2022-10-09T02:41:18.116Z,23.38
2022-10-09T02:43:18.056Z,23.40
2022-10-09T02:45:18.160Z,23.37
2022-10-09T02:47:18.150Z,23.37
2022-10-09T02:49:18.054Z,23.39
2022-10-09T02:51:18.178Z,23.38
2022-10-09T02:53:17.990Z,23.40
2022-10-09T02:55:18.055Z,23.39
2022-10-09T02:57:18.162Z,23.34
2022-10-09T02:59:18.191Z,23.33
2022-10-09T03:01:18.125Z,23.33
2022-10-09T03:03:18.152Z,23.40
2022-10-09T03:05:18.104Z,23.34
2022-10-09T03:07:18.223Z,23.40
2022-10-09T03:09:18.229Z,23.38
2022-10-09T03:11:18.011Z,23.39
2022-10-09T03:13:18.164Z,23.36
2022-10-09T03:15:18.178Z,23.38
2022-10-09T03:17:18.147Z,23.35
2022-10-09T03:19:18.075Z,23.35
2022-10-09T03:21:18.146Z,23.34
2022-10-09T03:23:18.188Z,23.34
2022-10-09T03:25:18.092Z,23.34
2022-10-09T03:27:18.199Z,23.36
2022-10-09T03:29:18.066Z,23.31
2022-10-09T03:31:27.731Z,23.34
2022-10-09T03:33:18.162Z,23.34
2022-10-09T03:35:18.203Z,23.31
2022-10-09T03:37:18.032Z,23.34
2022-10-09T03:39:18.127Z,23.31
2022-10-09T03:41:18.195Z,23.34
2022-10-09T03:43:18.156Z,23.34
2022-10-09T03:45:18.247Z,23.37
2022-10-09T03:47:18.093Z,23.29
2022-10-09T03:49:18.219Z,23.37
2022-10-09T03:51:18.185Z,23.29
2022-10-09T03:53:18.110Z,23.36
2022-10-09T03:55:18.187Z,23.34
2022-10-09T03:57:18.179Z,23.33
2022-10-09T03:59:18.197Z,23.33
2022-10-09T04:01:18.286Z,23.06
2022-10-09T04:03:18.190Z,23.02
2022-10-09T04:05:18.205Z,23.10
2022-10-09T04:07:18.243Z,23.03
2022-10-09T04:09:18.126Z,23.10
2022-10-09T04:11:18.256Z,23.10
2022-10-09T04:13:18.131Z,23.05
2022-10-09T04:15:18.141Z,23.09
2022-10-09T04:17:18.251Z,22.95
2022-10-09T04:19:18.105Z,23.06
2022-10-09T04:21:18.115Z,23.05
2022-10-09T04:23:18.284Z,23.01
2022-10-09T04:25:18.265Z,23.01
2022-10-09T04:27:18.266Z,23.02
2022-10-09T04:29:18.242Z,23.03
2022-10-09T04:31:18.264Z,23.21
2022-10-09T04:33:18.252Z,23.24
2022-10-09T04:35:18.263Z,23.26
2022-10-09T04:37:18.214Z,23.26
2022-10-09T04:39:18.342Z,23.25
2022-10-09T04:41:18.201Z,23.25
2022-10-09T04:43:18.267Z,23.26
2022-10-09T04:45:18.290Z,23.25
2022-10-09T04:47:18.316Z,23.26
2022-10-09T04:49:18.289Z,23.27
2022-10-09T04:51:18.251Z,23.25
2022-10-09T04:53:18.279Z,23.25
2022-10-09T04:55:18.310Z,23.25
2022-10-09T04:57:18.350Z,23.25
2022-10-09T04:59:18.289Z,23.25
2022-10-09T05:01:18.279Z,23.23
2022-10-09T05:03:18.131Z,23.25
2022-10-09T05:05:18.272Z,23.25
2022-10-09T05:07:18.302Z,23.25
2022-10-09T05:09:18.239Z,23.25
2022-10-09T05:11:18.211Z,23.24
2022-10-09T05:13:18.335Z,23.25
2022-10-09T05:15:18.301Z,23.25
2022-10-09T05:17:22.774Z,23.26
2022-10-09T05:19:18.313Z,23.20
2022-10-09T05:21:18.313Z,23.24
2022-10-09T05:23:18.263Z,23.23
2022-10-09T05:25:18.322Z,23.25
2022-10-09T05:27:18.328Z,23.22
2022-10-09T05:29:18.295Z,23.17
2022-10-09T05:31:18.371Z,23.25
2022-10-09T05:33:18.229Z,23.24
2022-10-09T05:35:18.412Z,23.18
2022-10-09T05:37:18.239Z,23.25
2022-10-09T05:39:18.313Z,23.23
2022-10-09T05:41:18.226Z,23.23
2022-10-09T05:43:18.395Z,23.21
2022-10-09T05:45:18.333Z,23.22
2022-10-09T05:47:18.326Z,23.19
2022-10-09T05:49:18.301Z,23.22
2022-10-09T05:51:18.738Z,23.23
2022-10-09T05:53:18.356Z,23.20
2022-10-09T05:55:18.291Z,23.21
2022-10-09T05:57:18.362Z,23.20
2022-10-09T05:59:18.332Z,23.25
2022-10-09T06:01:18.474Z,23.24
2022-10-09T06:03:18.417Z,23.23
2022-10-09T06:05:18.312Z,23.22
2022-10-09T06:07:18.289Z,23.08
2022-10-09T06:09:18.304Z,23.23
2022-10-09T06:11:18.551Z,23.24
2022-10-09T06:13:18.305Z,23.25
2022-10-09T06:15:18.336Z,23.25
2022-10-09T06:17:18.268Z,23.23
2022-10-09T06:19:18.315Z,23.25
2022-10-09T06:21:18.404Z,23.25
2022-10-09T06:23:18.612Z,23.27
2022-10-09T06:25:18.394Z,23.26
2022-10-09T06:27:18.361Z,23.27
2022-10-09T06:29:18.187Z,23.31
2022-10-09T06:31:18.443Z,23.30
2022-10-09T06:33:18.300Z,23.11
2022-10-09T06:35:18.347Z,23.31
2022-10-09T06:37:18.360Z,23.34
2022-10-09T06:39:18.215Z,23.38
2022-10-09T06:41:18.273Z,23.39
2022-10-09T06:43:18.439Z,23.40
2022-10-09T06:45:18.329Z,23.48
2022-10-09T06:47:18.273Z,23.39
2022-10-09T06:49:18.376Z,23.52
2022-10-09T06:51:18.472Z,23.59
2022-10-09T06:53:18.427Z,23.56
2022-10-09T06:55:18.414Z,23.56
2022-10-09T06:57:18.426Z,23.68
2022-10-09T06:59:18.414Z,23.73
2022-10-09T07:01:18.612Z,23.78
2022-10-09T07:03:18.429Z,23.84
2022-10-09T07:05:18.390Z,23.95
2022-10-09T07:07:18.491Z,23.98
2022-10-09T07:09:18.328Z,23.87
2022-10-09T07:11:18.261Z,23.98
2022-10-09T07:13:18.390Z,24.10
2022-10-09T07:15:18.322Z,24.09
2022-10-09T07:17:18.462Z,24.15
2022-10-09T07:19:18.460Z,24.19
2022-10-09T07:21:18.401Z,24.37
2022-10-09T07:23:18.343Z,24.36
2022-10-09T07:25:18.382Z,24.41
2022-10-09T07:27:18.416Z,24.37
2022-10-09T07:29:18.454Z,24.19
2022-10-09T07:31:18.523Z,24.10
2022-10-09T07:33:18.339Z,23.99
2022-10-09T07:35:18.444Z,24.01
2022-10-09T07:37:18.457Z,23.94
2022-10-09T07:39:18.496Z,23.88
2022-10-09T07:41:18.304Z,23.88
2022-10-09T07:43:18.435Z,23.87
2022-10-09T07:45:18.439Z,23.83
2022-10-09T07:47:18.393Z,23.83
2022-10-09T07:49:18.494Z,23.83
2022-10-09T07:51:18.492Z,23.80
2022-10-09T07:53:18.487Z,23.83
2022-10-09T07:55:18.402Z,23.89
2022-10-09T07:57:18.399Z,23.76
2022-10-09T07:59:18.413Z,24.10
2022-10-09T08:01:20.256Z,24.28
2022-10-09T08:03:18.584Z,24.52
2022-10-09T08:05:18.463Z,24.66
2022-10-09T08:07:18.462Z,24.81
2022-10-09T08:09:18.329Z,24.90
2022-10-09T08:11:18.520Z,24.95
2022-10-09T08:13:18.503Z,25.05
2022-10-09T08:15:18.508Z,25.21
2022-10-09T08:17:18.578Z,25.36
2022-10-09T08:19:18.509Z,25.46
2022-10-09T08:21:18.477Z,25.52
2022-10-09T08:23:18.523Z,25.60
2022-10-09T08:25:18.531Z,25.64
2022-10-09T08:27:18.551Z,25.65
2022-10-09T08:29:18.523Z,25.79
2022-10-09T08:31:18.717Z,25.84
2022-10-09T08:33:18.487Z,25.93
2022-10-09T08:35:18.485Z,26.02
2022-10-09T08:37:18.526Z,25.80
2022-10-09T08:39:18.537Z,26.22
2022-10-09T08:41:18.521Z,26.20
2022-10-09T08:43:18.468Z,26.22
2022-10-09T08:45:18.470Z,26.31
2022-10-09T08:47:18.548Z,26.55
2022-10-09T08:49:18.567Z,26.82
2022-10-09T08:51:18.424Z,26.46
2022-10-09T08:53:18.559Z,26.52
2022-10-09T08:55:18.463Z,27.08
2022-10-09T08:57:18.461Z,26.00
2022-10-09T08:59:18.496Z,27.31
2022-10-09T09:01:18.607Z,27.50
2022-10-09T09:03:18.598Z,27.47
2022-10-09T09:05:18.469Z,27.51
2022-10-09T09:07:18.526Z,26.09
2022-10-09T09:09:18.524Z,27.37
2022-10-09T09:11:21.599Z,27.53
2022-10-09T09:13:18.480Z,27.45
2022-10-09T09:15:18.542Z,25.72
2022-10-09T09:17:18.431Z,25.86
2022-10-09T09:19:18.390Z,25.72
2022-10-09T09:21:18.646Z,27.56
2022-10-09T09:23:18.607Z,25.78
2022-10-09T09:25:18.504Z,27.70
2022-10-09T09:27:18.555Z,25.75
2022-10-09T09:29:18.511Z,27.58
2022-10-09T09:31:18.475Z,27.55
2022-10-09T09:33:18.432Z,27.67
2022-10-09T09:35:18.397Z,25.72
2022-10-09T09:37:18.527Z,27.62
2022-10-09T09:40:08.306Z,25.75
2022-10-09T09:41:18.500Z,27.65
2022-10-09T09:43:18.606Z,25.65
2022-10-09T09:45:18.589Z,27.50
2022-10-09T09:47:18.600Z,27.59
2022-10-09T09:49:18.604Z,27.58
2022-10-09T09:51:27.923Z,27.78
2022-10-09T09:53:18.472Z,27.71
2022-10-09T09:55:18.628Z,27.72
2022-10-09T09:57:22.016Z,27.74
2022-10-09T09:59:18.574Z,25.61
2022-10-09T10:01:18.500Z,27.59
2022-10-09T10:03:18.627Z,25.65
2022-10-09T10:05:18.746Z,27.51
2022-10-09T10:07:18.501Z,25.63
2022-10-09T10:09:18.536Z,25.63
2022-10-09T10:11:18.614Z,25.72
2022-10-09T10:13:18.608Z,25.65
2022-10-09T10:15:18.642Z,27.76
2022-10-09T10:17:18.708Z,26.62
2022-10-09T10:19:18.719Z,27.61
2022-10-09T10:21:18.642Z,27.61
2022-10-09T10:23:18.610Z,25.64
2022-10-09T10:25:18.605Z,25.84
2022-10-09T10:27:18.612Z,25.83
2022-10-09T10:29:18.567Z,25.85
2022-10-09T10:31:22.656Z,25.97
2022-10-09T10:33:18.713Z,27.74
2022-10-09T10:35:18.603Z,27.08
2022-10-09T10:37:18.657Z,27.61
2022-10-09T10:39:18.634Z,25.81
2022-10-09T10:41:18.678Z,25.83
2022-10-09T10:43:18.666Z,25.92
2022-10-09T10:45:18.676Z,26.08
2022-10-09T10:47:18.685Z,26.09
2022-10-09T10:49:18.569Z,27.71
2022-10-09T10:51:18.681Z,27.67
2022-10-09T10:53:18.653Z,27.74
2022-10-09T10:55:18.565Z,25.77
2022-10-09T10:57:18.587Z,25.75
2022-10-09T10:59:18.705Z,25.84
2022-10-09T11:01:18.664Z,25.98
2022-10-09T11:03:18.750Z,26.07
2022-10-09T11:05:18.518Z,27.76
2022-10-09T11:07:18.587Z,27.80
2022-10-09T11:09:18.665Z,25.75
2022-10-09T11:11:18.578Z,26.06
2022-10-09T11:13:18.713Z,26.13
2022-10-09T11:15:18.733Z,26.18
2022-10-09T11:17:18.545Z,26.22
2022-10-09T11:19:18.670Z,27.39
2022-10-09T11:21:18.726Z,27.76
2022-10-09T11:23:18.597Z,27.70
2022-10-09T11:25:18.761Z,25.94
2022-10-09T11:27:18.675Z,27.48
2022-10-09T11:29:18.645Z,26.21
2022-10-09T11:31:18.738Z,26.22
2022-10-09T11:33:18.764Z,27.78
2022-10-09T11:35:18.615Z,27.78
2022-10-09T11:37:18.738Z,25.71
2022-10-09T11:39:18.755Z,25.97
2022-10-09T11:41:18.692Z,25.93
2022-10-09T11:43:18.685Z,26.08
2022-10-09T11:45:18.740Z,26.15
2022-10-09T11:47:18.753Z,26.08
2022-10-09T11:49:18.795Z,27.77
2022-10-09T11:51:18.648Z,26.90
2022-10-09T11:53:18.760Z,27.70
2022-10-09T11:55:18.746Z,26.16
2022-10-09T11:57:18.647Z,26.14
2022-10-09T11:59:18.753Z,26.13
2022-10-09T12:01:18.803Z,26.11
2022-10-09T12:03:18.796Z,26.07
2022-10-09T12:05:18.609Z,27.76
2022-10-09T12:07:18.742Z,27.78
2022-10-09T12:09:18.842Z,27.31
2022-10-09T12:11:18.718Z,26.13
2022-10-09T12:13:18.699Z,26.11
2022-10-09T12:15:18.697Z,26.29
2022-10-09T12:17:18.782Z,26.16
2022-10-09T12:19:18.796Z,26.14
2022-10-09T12:21:18.780Z,27.80
2022-10-09T12:23:26.643Z,27.78
2022-10-09T12:25:18.748Z,27.72
2022-10-09T12:27:18.631Z,26.24
2022-10-09T12:29:18.686Z,26.01
2022-10-09T12:31:18.870Z,26.03
2022-10-09T12:33:18.753Z,25.95
2022-10-09T12:35:18.771Z,26.07
2022-10-09T12:37:18.836Z,27.76
2022-10-09T12:39:18.794Z,27.67
2022-10-09T12:41:20.422Z,27.78
2022-10-09T12:43:18.797Z,27.70
2022-10-09T12:45:18.803Z,27.87
2022-10-09T12:47:18.811Z,26.17
2022-10-09T12:49:18.793Z,26.14
2022-10-09T12:51:18.684Z,26.11
2022-10-09T12:53:18.644Z,26.17
2022-10-09T12:55:18.832Z,27.72
2022-10-09T12:57:19.668Z,27.78
2022-10-09T12:59:18.797Z,27.78
2022-10-09T13:01:18.818Z,27.74
2022-10-09T13:03:18.713Z,25.80
2022-10-09T13:05:18.819Z,26.04
2022-10-09T13:07:18.841Z,26.14
2022-10-09T13:09:18.752Z,26.17
2022-10-09T13:11:18.815Z,27.70
2022-10-09T13:13:18.850Z,27.74
2022-10-09T13:15:19.191Z,26.56
2022-10-09T13:17:18.859Z,26.08
2022-10-09T13:19:18.702Z,26.00
2022-10-09T13:21:18.678Z,26.19
2022-10-09T13:23:18.883Z,26.13
2022-10-09T13:25:18.740Z,26.07
2022-10-09T13:27:18.856Z,27.76
2022-10-09T13:29:18.901Z,27.75
2022-10-09T13:31:18.883Z,27.78
2022-10-09T13:33:18.879Z,26.07
2022-10-09T13:35:18.817Z,26.08
2022-10-09T13:37:18.854Z,26.27
2022-10-09T13:39:18.833Z,26.12
2022-10-09T13:41:18.852Z,27.78
2022-10-09T13:43:18.804Z,27.85
2022-10-09T13:45:18.961Z,27.81
2022-10-09T13:47:24.101Z,26.07
2022-10-09T13:49:18.890Z,26.23
2022-10-09T13:51:18.939Z,26.14
2022-10-09T13:53:18.877Z,26.14
2022-10-09T13:55:18.863Z,26.08
2022-10-09T13:57:18.733Z,27.70
2022-10-09T13:59:18.909Z,27.73
2022-10-09T14:01:18.878Z,27.46
2022-10-09T14:03:18.775Z,26.22
2022-10-09T14:05:18.862Z,26.13
2022-10-09T14:07:18.746Z,26.18
2022-10-09T14:09:18.876Z,25.93
2022-10-09T14:11:18.885Z,26.08
2022-10-09T14:13:18.834Z,26.06
2022-10-09T14:15:18.899Z,27.72
2022-10-09T14:17:18.797Z,25.65
2022-10-09T14:19:18.950Z,25.81
2022-10-09T14:21:18.993Z,25.91
2022-10-09T14:23:18.816Z,25.91
2022-10-09T14:25:18.918Z,25.89
2022-10-09T14:27:18.967Z,25.88
2022-10-09T14:29:18.811Z,25.15
2022-10-09T14:31:18.896Z,24.65
2022-10-09T14:33:18.833Z,24.55
2022-10-09T14:35:21.538Z,24.51
2022-10-09T14:37:39.836Z,24.67
2022-10-09T14:39:18.913Z,24.79
2022-10-09T14:41:18.876Z,24.80
2022-10-09T14:43:18.784Z,24.79
2022-10-09T14:45:18.785Z,24.80
2022-10-09T14:47:18.803Z,24.81
2022-10-09T14:49:18.954Z,24.85
2022-10-09T14:51:18.933Z,24.40
2022-10-09T14:53:18.913Z,24.38
2022-10-09T14:55:18.968Z,24.50
2022-10-09T14:57:19.013Z,24.67
2022-10-09T14:59:18.829Z,24.69
2022-10-09T15:01:19.065Z,24.71
2022-10-09T15:03:18.986Z,24.71
2022-10-09T15:05:18.965Z,24.66
2022-10-09T15:07:18.927Z,24.66
2022-10-09T15:09:18.942Z,24.66
2022-10-09T15:11:18.835Z,24.66
2022-10-09T15:13:18.941Z,24.34
2022-10-09T15:15:18.900Z,24.32
2022-10-09T15:17:18.972Z,24.54
2022-10-09T15:19:18.939Z,24.62
2022-10-09T15:21:18.955Z,24.65
2022-10-09T15:23:19.011Z,24.64
2022-10-09T15:25:19.001Z,24.59
2022-10-09T15:27:18.893Z,24.58
2022-10-09T15:29:18.989Z,24.60
2022-10-09T15:31:18.853Z,24.56
2022-10-09T15:33:18.879Z,24.60
2022-10-09T15:35:18.900Z,24.62
2022-10-09T15:37:19.000Z,24.59
2022-10-09T15:39:19.021Z,24.28
2022-10-09T15:41:18.956Z,24.22
2022-10-09T15:43:19.016Z,24.47
2022-10-09T15:45:18.977Z,24.52
2022-10-09T15:47:27.118Z,24.50
2022-10-09T15:49:18.845Z,24.44
2022-10-09T15:51:18.947Z,24.47
2022-10-09T15:53:18.919Z,24.44
2022-10-09T15:55:19.046Z,24.43
2022-10-09T15:57:18.996Z,24.47
2022-10-09T15:59:18.984Z,24.41
2022-10-09T16:01:18.993Z,24.43
2022-10-09T16:03:19.025Z,24.41
2022-10-09T16:05:19.054Z,24.43
2022-10-09T16:07:19.034Z,24.43
2022-10-09T16:09:18.824Z,24.41
2022-10-09T16:11:21.779Z,24.40
2022-10-09T16:13:19.086Z,24.47
2022-10-09T16:15:19.018Z,24.38
2022-10-09T16:17:18.935Z,24.35
2022-10-09T16:19:19.119Z,24.38
2022-10-09T16:21:19.012Z,24.35
2022-10-09T16:23:18.994Z,24.31
2022-10-09T16:25:19.064Z,24.38
2022-10-09T16:27:18.969Z,24.29
2022-10-09T16:29:18.981Z,24.37
2022-10-09T16:31:19.074Z,24.29
2022-10-09T16:33:19.051Z,24.29
2022-10-09T16:35:19.024Z,24.33
2022-10-09T16:37:19.030Z,24.27
2022-10-09T16:39:19.077Z,24.25
2022-10-09T16:41:18.944Z,24.24
2022-10-09T16:43:19.119Z,24.25
2022-10-09T16:45:18.898Z,24.32
2022-10-09T16:47:18.986Z,24.29
2022-10-09T16:49:22.662Z,24.27
2022-10-09T16:51:19.124Z,24.25
2022-10-09T16:53:19.106Z,24.22
2022-10-09T16:55:19.084Z,24.15
2022-10-09T16:57:18.963Z,24.20
2022-10-09T16:59:19.137Z,24.17
2022-10-09T17:01:19.129Z,24.23
2022-10-09T17:03:19.029Z,24.20
2022-10-09T17:05:18.941Z,24.16
2022-10-09T17:07:19.000Z,24.19
2022-10-09T17:09:19.142Z,24.20
2022-10-09T17:11:19.119Z,24.20
2022-10-09T17:13:19.106Z,24.27
2022-10-09T17:15:19.104Z,24.27
2022-10-09T17:17:19.108Z,24.27
2022-10-09T17:19:19.108Z,24.29
2022-10-09T17:21:18.994Z,24.29
2022-10-09T17:23:19.045Z,24.35
2022-10-09T17:25:19.003Z,24.30
2022-10-09T17:27:19.045Z,24.27
2022-10-09T17:29:19.159Z,24.27
2022-10-09T17:31:19.160Z,24.22
2022-10-09T17:33:19.932Z,24.27
2022-10-09T17:35:19.243Z,24.35
2022-10-09T17:37:19.105Z,24.28
2022-10-09T17:39:19.214Z,24.18
2022-10-09T17:41:19.279Z,24.16
2022-10-09T17:43:19.106Z,24.11
2022-10-09T17:45:19.025Z,24.12
2022-10-09T17:47:19.145Z,24.10
2022-10-09T17:49:19.145Z,24.10
2022-10-09T17:51:19.073Z,24.10
2022-10-09T17:53:19.231Z,24.12
2022-10-09T17:55:19.099Z,24.12
2022-10-09T17:57:19.188Z,24.04
2022-10-09T17:59:19.161Z,24.05
2022-10-09T18:01:19.228Z,24.08
2022-10-09T18:03:19.206Z,24.09
2022-10-09T18:05:19.148Z,24.04
2022-10-09T18:07:19.152Z,24.04
2022-10-09T18:09:19.483Z,24.04
2022-10-09T18:11:19.217Z,24.04
2022-10-09T18:13:19.240Z,23.97
2022-10-09T18:15:19.062Z,24.04
2022-10-09T18:17:19.416Z,24.00
2022-10-09T18:19:19.063Z,24.04
2022-10-09T18:21:19.077Z,23.98
2022-10-09T18:23:22.549Z,24.00
2022-10-09T18:25:19.181Z,24.02
2022-10-09T18:27:19.224Z,23.98
2022-10-09T18:29:19.150Z,23.96
2022-10-09T18:31:19.194Z,23.96
2022-10-09T18:33:19.190Z,23.96
2022-10-09T18:35:19.391Z,23.95
2022-10-09T18:37:19.306Z,23.92
2022-10-09T18:39:19.152Z,23.96
2022-10-09T18:41:19.317Z,23.96
2022-10-09T18:43:19.325Z,23.96
2022-10-09T18:45:19.246Z,23.94
2022-10-09T18:47:19.213Z,23.96
2022-10-09T18:49:19.144Z,23.94
2022-10-09T18:51:19.288Z,23.97
2022-10-09T18:53:19.219Z,23.96
2022-10-09T18:55:19.221Z,23.94
2022-10-09T18:57:19.219Z,23.98
2022-10-09T18:59:19.227Z,23.96
2022-10-09T19:01:19.255Z,23.97
2022-10-09T19:03:19.192Z,24.01
2022-10-09T19:05:19.269Z,23.83
2022-10-09T19:07:19.200Z,23.96
2022-10-09T19:09:19.131Z,23.91
2022-10-09T19:11:19.153Z,23.88
2022-10-09T19:13:19.278Z,23.87
2022-10-09T19:15:19.108Z,23.85
2022-10-09T19:17:19.138Z,23.84
2022-10-09T19:19:19.237Z,23.80
2022-10-09T19:21:19.226Z,23.79
2022-10-09T19:23:19.309Z,23.73
2022-10-09T19:25:19.266Z,23.79
2022-10-09T19:27:21.579Z,23.81
2022-10-09T19:29:19.138Z,23.82
2022-10-09T19:31:19.357Z,23.81
2022-10-09T19:33:19.321Z,23.76
2022-10-09T19:35:19.247Z,23.84
2022-10-09T19:37:19.234Z,23.79
2022-10-09T19:39:19.285Z,23.81
2022-10-09T19:41:19.304Z,23.70
2022-10-09T19:43:19.432Z,23.70
2022-10-09T19:45:19.221Z,23.80
2022-10-09T19:47:19.195Z,23.69
2022-10-09T19:49:19.275Z,23.73
2022-10-09T19:51:19.137Z,23.75
2022-10-09T19:53:19.218Z,23.69
2022-10-09T19:55:19.280Z,23.70
2022-10-09T19:57:19.335Z,23.81
2022-10-09T19:59:19.291Z,23.71
2022-10-09T20:01:19.320Z,23.68
2022-10-09T20:03:19.189Z,23.68
2022-10-09T20:05:19.255Z,23.73
2022-10-09T20:07:19.208Z,23.77
2022-10-09T20:09:19.360Z,23.80
2022-10-09T20:11:19.371Z,23.78
2022-10-09T20:13:19.308Z,23.72
2022-10-09T20:15:19.398Z,23.76
2022-10-09T20:17:19.232Z,23.79
2022-10-09T20:19:19.318Z,23.79
2022-10-09T20:21:19.307Z,23.80
2022-10-09T20:23:19.213Z,23.80
2022-10-09T20:25:19.313Z,23.76
2022-10-09T20:27:19.231Z,23.70
2022-10-09T20:29:19.250Z,23.76
2022-10-09T20:31:19.499Z,23.73
2022-10-09T20:33:19.292Z,23.75
2022-10-09T20:35:19.324Z,23.75
2022-10-09T20:37:19.330Z,23.76
2022-10-09T20:39:19.239Z,23.59
2022-10-09T20:41:19.333Z,23.69
2022-10-09T20:43:19.331Z,23.67
2022-10-09T20:45:19.324Z,23.72
2022-10-09T20:47:19.192Z,23.73
2022-10-09T20:49:19.282Z,23.73
2022-10-09T20:51:19.363Z,23.57
2022-10-09T20:53:19.352Z,23.75
2022-10-09T20:55:19.373Z,23.69
2022-10-09T20:57:19.362Z,23.72
2022-10-09T20:59:19.351Z,23.70
2022-10-09T21:01:19.404Z,23.63
2022-10-09T21:03:19.376Z,23.68
2022-10-09T21:05:19.278Z,23.69
2022-10-09T21:07:19.370Z,23.70
2022-10-09T21:09:19.300Z,23.68
2022-10-09T21:11:19.323Z,23.65
2022-10-09T21:13:19.375Z,23.70
2022-10-09T21:15:19.371Z,23.68
2022-10-09T21:17:19.422Z,23.71
2022-10-09T21:19:19.315Z,23.68
2022-10-09T21:21:19.263Z,23.69
2022-10-09T21:23:19.392Z,23.67
2022-10-09T21:25:19.239Z,23.65
2022-10-09T21:27:19.546Z,23.66
2022-10-09T21:29:19.259Z,23.65
2022-10-09T21:31:19.343Z,23.62
2022-10-09T21:33:19.364Z,23.58
2022-10-09T21:35:19.389Z,23.63
2022-10-09T21:37:22.072Z,23.59
2022-10-09T21:39:19.400Z,23.58
2022-10-09T21:41:19.254Z,23.59
2022-10-09T21:43:19.351Z,23.65
2022-10-09T21:45:19.292Z,23.59
2022-10-09T21:47:19.363Z,23.56
2022-10-09T21:49:19.436Z,23.50
2022-10-09T21:51:19.388Z,23.59
2022-10-09T21:53:19.292Z,23.63
2022-10-09T21:55:19.384Z,23.59
2022-10-09T21:57:19.324Z,23.56
2022-10-09T21:59:19.411Z,23.57
2022-10-09T22:01:19.398Z,23.59
2022-10-09T22:03:19.387Z,23.53
2022-10-09T22:05:19.423Z,23.53
2022-10-09T22:07:19.392Z,23.58
2022-10-09T22:09:19.444Z,23.55
2022-10-09T22:11:19.292Z,23.60
2022-10-09T22:13:19.398Z,23.56
2022-10-09T22:15:19.377Z,23.59
2022-10-09T22:17:19.261Z,23.53
2022-10-09T22:19:19.389Z,23.52
2022-10-09T22:21:19.544Z,23.53
2022-10-09T22:23:19.291Z,23.54
2022-10-09T22:25:19.367Z,23.55
2022-10-09T22:27:19.412Z,23.54
2022-10-09T22:29:19.476Z,23.53
2022-10-09T22:31:19.391Z,23.56
2022-10-09T22:33:19.470Z,23.50
2022-10-09T22:35:19.357Z,23.53
2022-10-09T22:37:19.446Z,23.58
2022-10-09T22:39:19.488Z,23.53
2022-10-09T22:41:19.327Z,23.57
2022-10-09T22:43:19.467Z,23.51
2022-10-09T22:45:19.429Z,23.54
2022-10-09T22:47:19.448Z,23.52
2022-10-09T22:49:19.366Z,23.48
2022-10-09T22:51:19.287Z,23.49
2022-10-09T22:53:19.450Z,23.45
2022-10-09T22:55:19.508Z,23.45
2022-10-09T22:57:19.382Z,23.48
2022-10-09T22:59:19.337Z,23.53
2022-10-09T23:01:19.436Z,23.45
2022-10-09T23:03:19.453Z,23.49
2022-10-09T23:05:19.517Z,23.50
2022-10-09T23:07:19.400Z,23.49
2022-10-09T23:09:19.487Z,23.51
2022-10-09T23:11:19.507Z,23.47
2022-10-09T23:13:19.412Z,23.47
2022-10-09T23:15:19.495Z,23.43
2022-10-09T23:17:19.526Z,23.42
2022-10-09T23:19:19.484Z,23.52
2022-10-09T23:21:19.555Z,23.48
2022-10-09T23:23:19.544Z,23.45
2022-10-09T23:25:19.390Z,23.49
2022-10-09T23:27:19.505Z,23.50
2022-10-09T23:29:19.632Z,23.49
2022-10-09T23:31:19.530Z,23.50
2022-10-09T23:33:19.497Z,23.47
2022-10-09T23:35:19.422Z,23.40
2022-10-09T23:37:19.470Z,23.42
2022-10-09T23:39:19.514Z,23.45
2022-10-09T23:41:19.531Z,23.42
2022-10-09T23:43:19.527Z,23.40
2022-10-09T23:45:19.548Z,23.42
2022-10-09T23:47:19.466Z,23.42
2022-10-09T23:49:19.367Z,23.42
2022-10-09T23:51:19.467Z,23.45
2022-10-09T23:53:19.443Z,23.41
2022-10-09T23:55:19.544Z,23.42
2022-10-09T23:57:19.554Z,23.43
2022-10-09T23:59:19.537Z,23.42
